sensor_id;sensor_type;location;lat;lon;timestamp;P1;durP1;ratioP1;P2;durP2;ratioP2
20399;SDS011;10359;53.596;22.520;2023-04-01T00:02:07;9.33;;;5.30;;
20399;SDS011;10359;53.596;22.520;2023-04-01T00:04:58;10.27;;;6.20;;
20399;SDS011;10359;53.596;22.520;2023-04-01T00:07:49;8.50;;;6.13;;
20399;SDS011;10359;53.596;22.520;2023-04-01T00:10:39;11.97;;;6.17;;
20399;SDS011;10359;53.596;22.520;2023-04-01T00:13:28;8.77;;;4.93;;
20399;SDS011;10359;53.596;22.520;2023-04-01T00:16:18;6.57;;;5.23;;
20399;SDS011;10359;53.596;22.520;2023-04-01T00:19:08;8.57;;;5.20;;
20399;SDS011;10359;53.596;22.520;2023-04-01T00:21:59;6.93;;;4.80;;
20399;SDS011;10359;53.596;22.520;2023-04-01T00:24:49;7.37;;;5.10;;
20399;SDS011;10359;53.596;22.520;2023-04-01T00:27:38;6.77;;;5.00;;
20399;SDS011;10359;53.596;22.520;2023-04-01T00:30:28;7.90;;;5.00;;
20399;SDS011;10359;53.596;22.520;2023-04-01T00:33:18;7.00;;;4.63;;
20399;SDS011;10359;53.596;22.520;2023-04-01T00:36:08;5.97;;;4.70;;
20399;SDS011;10359;53.596;22.520;2023-04-01T00:39:00;7.13;;;5.37;;
20399;SDS011;10359;53.596;22.520;2023-04-01T00:41:49;7.90;;;5.33;;
20399;SDS011;10359;53.596;22.520;2023-04-01T00:44:39;11.83;;;6.30;;
20399;SDS011;10359;53.596;22.520;2023-04-01T00:47:29;7.70;;;5.37;;
20399;SDS011;10359;53.596;22.520;2023-04-01T00:50:19;27.17;;;8.13;;
20399;SDS011;10359;53.596;22.520;2023-04-01T00:53:11;7.20;;;5.17;;
20399;SDS011;10359;53.596;22.520;2023-04-01T00:56:07;9.37;;;6.07;;
20399;SDS011;10359;53.596;22.520;2023-04-01T00:59:02;9.37;;;5.60;;
20399;SDS011;10359;53.596;22.520;2023-04-01T01:01:55;8.67;;;5.40;;
20399;SDS011;10359;53.596;22.520;2023-04-01T01:04:45;11.80;;;6.00;;
20399;SDS011;10359;53.596;22.520;2023-04-01T01:07:36;10.67;;;5.63;;
20399;SDS011;10359;53.596;22.520;2023-04-01T01:10:33;7.60;;;5.27;;
20399;SDS011;10359;53.596;22.520;2023-04-01T01:13:29;9.30;;;6.03;;
20399;SDS011;10359;53.596;22.520;2023-04-01T01:16:25;7.50;;;5.67;;
20399;SDS011;10359;53.596;22.520;2023-04-01T01:19:21;9.37;;;6.20;;
20399;SDS011;10359;53.596;22.520;2023-04-01T01:22:31;13.07;;;6.87;;
20399;SDS011;10359;53.596;22.520;2023-04-01T01:25:39;12.47;;;7.80;;
20399;SDS011;10359;53.596;22.520;2023-04-01T01:28:36;16.47;;;8.17;;
20399;SDS011;10359;53.596;22.520;2023-04-01T01:31:40;32.37;;;8.03;;
20399;SDS011;10359;53.596;22.520;2023-04-01T01:34:40;14.80;;;6.80;;
20399;SDS011;10359;53.596;22.520;2023-04-01T01:37:40;11.53;;;6.07;;
20399;SDS011;10359;53.596;22.520;2023-04-01T01:40:31;14.40;;;6.77;;
20399;SDS011;10359;53.596;22.520;2023-04-01T01:43:22;12.57;;;6.50;;
20399;SDS011;10359;53.596;22.520;2023-04-01T01:46:16;9.60;;;6.37;;
20399;SDS011;10359;53.596;22.520;2023-04-01T01:49:08;11.97;;;6.80;;
20399;SDS011;10359;53.596;22.520;2023-04-01T01:52:00;8.70;;;6.13;;
20399;SDS011;10359;53.596;22.520;2023-04-01T01:54:53;7.30;;;5.83;;
20399;SDS011;10359;53.596;22.520;2023-04-01T01:57:44;9.60;;;5.87;;
20399;SDS011;10359;53.596;22.520;2023-04-01T02:00:34;7.43;;;5.37;;
20399;SDS011;10359;53.596;22.520;2023-04-01T02:03:25;8.77;;;5.73;;
20399;SDS011;10359;53.596;22.520;2023-04-01T02:06:17;10.10;;;6.53;;
20399;SDS011;10359;53.596;22.520;2023-04-01T02:09:08;8.03;;;5.90;;
20399;SDS011;10359;53.596;22.520;2023-04-01T02:12:09;11.75;;;7.05;;
20399;SDS011;10359;53.596;22.520;2023-04-01T02:15:06;7.80;;;5.40;;
20399;SDS011;10359;53.596;22.520;2023-04-01T02:17:58;7.50;;;4.80;;
20399;SDS011;10359;53.596;22.520;2023-04-01T02:20:50;8.30;;;6.13;;
20399;SDS011;10359;53.596;22.520;2023-04-01T02:23:40;8.03;;;5.37;;
20399;SDS011;10359;53.596;22.520;2023-04-01T02:26:31;7.87;;;5.40;;
20399;SDS011;10359;53.596;22.520;2023-04-01T02:29:24;7.83;;;5.63;;
20399;SDS011;10359;53.596;22.520;2023-04-01T02:32:14;7.87;;;5.30;;
20399;SDS011;10359;53.596;22.520;2023-04-01T02:35:08;8.07;;;5.70;;
20399;SDS011;10359;53.596;22.520;2023-04-01T02:37:59;8.90;;;5.50;;
20399;SDS011;10359;53.596;22.520;2023-04-01T02:40:57;10.57;;;6.37;;
20399;SDS011;10359;53.596;22.520;2023-04-01T02:43:49;18.40;;;6.47;;
20399;SDS011;10359;53.596;22.520;2023-04-01T02:46:41;10.40;;;6.23;;
20399;SDS011;10359;53.596;22.520;2023-04-01T02:49:31;10.67;;;6.40;;
20399;SDS011;10359;53.596;22.520;2023-04-01T02:52:20;7.97;;;5.27;;
20399;SDS011;10359;53.596;22.520;2023-04-01T02:55:11;10.33;;;5.93;;
20399;SDS011;10359;53.596;22.520;2023-04-01T02:58:01;9.50;;;6.27;;
20399;SDS011;10359;53.596;22.520;2023-04-01T03:00:52;8.77;;;5.87;;
20399;SDS011;10359;53.596;22.520;2023-04-01T03:03:43;14.63;;;7.03;;
20399;SDS011;10359;53.596;22.520;2023-04-01T03:06:33;40.73;;;9.60;;
20399;SDS011;10359;53.596;22.520;2023-04-01T03:09:23;13.17;;;7.90;;
20399;SDS011;10359;53.596;22.520;2023-04-01T03:12:20;18.90;;;8.40;;
20399;SDS011;10359;53.596;22.520;2023-04-01T03:15:10;12.93;;;7.40;;
20399;SDS011;10359;53.596;22.520;2023-04-01T03:18:01;14.87;;;7.77;;
20399;SDS011;10359;53.596;22.520;2023-04-01T03:20:53;14.93;;;8.37;;
20399;SDS011;10359;53.596;22.520;2023-04-01T03:23:42;15.60;;;8.70;;
20399;SDS011;10359;53.596;22.520;2023-04-01T03:26:34;12.77;;;7.60;;
20399;SDS011;10359;53.596;22.520;2023-04-01T03:29:25;11.77;;;7.33;;
20399;SDS011;10359;53.596;22.520;2023-04-01T03:32:18;14.67;;;8.47;;
20399;SDS011;10359;53.596;22.520;2023-04-01T03:35:08;23.73;;;9.50;;
20399;SDS011;10359;53.596;22.520;2023-04-01T03:38:00;11.33;;;7.10;;
20399;SDS011;10359;53.596;22.520;2023-04-01T03:40:51;25.20;;;9.67;;
20399;SDS011;10359;53.596;22.520;2023-04-01T03:43:42;28.43;;;9.37;;
20399;SDS011;10359;53.596;22.520;2023-04-01T03:46:34;12.57;;;7.97;;
20399;SDS011;10359;53.596;22.520;2023-04-01T03:49:28;15.80;;;8.17;;
20399;SDS011;10359;53.596;22.520;2023-04-01T03:52:21;32.47;;;10.13;;
20399;SDS011;10359;53.596;22.520;2023-04-01T03:55:13;14.70;;;8.90;;
20399;SDS011;10359;53.596;22.520;2023-04-01T03:58:05;26.27;;;9.60;;
20399;SDS011;10359;53.596;22.520;2023-04-01T04:00:55;15.77;;;8.80;;
20399;SDS011;10359;53.596;22.520;2023-04-01T04:03:49;14.30;;;8.33;;
20399;SDS011;10359;53.596;22.520;2023-04-01T04:06:39;15.40;;;8.53;;
20399;SDS011;10359;53.596;22.520;2023-04-01T04:09:29;23.33;;;10.77;;
20399;SDS011;10359;53.596;22.520;2023-04-01T04:12:24;30.57;;;14.53;;
20399;SDS011;10359;53.596;22.520;2023-04-01T04:15:14;18.17;;;10.60;;
20399;SDS011;10359;53.596;22.520;2023-04-01T04:18:04;21.13;;;9.80;;
20399;SDS011;10359;53.596;22.520;2023-04-01T04:20:54;18.97;;;9.43;;
20399;SDS011;10359;53.596;22.520;2023-04-01T04:23:43;21.73;;;10.03;;
20399;SDS011;10359;53.596;22.520;2023-04-01T04:26:34;18.93;;;8.97;;
20399;SDS011;10359;53.596;22.520;2023-04-01T04:29:35;12.73;;;8.13;;
20399;SDS011;10359;53.596;22.520;2023-04-01T04:32:25;12.40;;;7.93;;
20399;SDS011;10359;53.596;22.520;2023-04-01T04:35:16;29.20;;;10.47;;
20399;SDS011;10359;53.596;22.520;2023-04-01T04:38:09;22.30;;;11.73;;
20399;SDS011;10359;53.596;22.520;2023-04-01T04:40:59;20.67;;;11.80;;
20399;SDS011;10359;53.596;22.520;2023-04-01T04:43:49;20.17;;;14.60;;
20399;SDS011;10359;53.596;22.520;2023-04-01T04:46:43;40.60;;;20.67;;
20399;SDS011;10359;53.596;22.520;2023-04-01T04:49:35;21.83;;;16.20;;
20399;SDS011;10359;53.596;22.520;2023-04-01T04:52:25;15.17;;;10.87;;
20399;SDS011;10359;53.596;22.520;2023-04-01T04:55:14;15.47;;;9.67;;
20399;SDS011;10359;53.596;22.520;2023-04-01T04:58:05;12.23;;;8.20;;
20399;SDS011;10359;53.596;22.520;2023-04-01T05:00:55;10.57;;;7.90;;
20399;SDS011;10359;53.596;22.520;2023-04-01T05:03:46;25.70;;;13.73;;
20399;SDS011;10359;53.596;22.520;2023-04-01T05:06:36;31.47;;;15.37;;
20399;SDS011;10359;53.596;22.520;2023-04-01T05:09:26;25.87;;;12.77;;
20399;SDS011;10359;53.596;22.520;2023-04-01T05:12:16;15.20;;;9.63;;
20399;SDS011;10359;53.596;22.520;2023-04-01T05:15:07;15.23;;;8.97;;
20399;SDS011;10359;53.596;22.520;2023-04-01T05:17:57;11.43;;;8.27;;
20399;SDS011;10359;53.596;22.520;2023-04-01T05:20:49;18.83;;;9.73;;
20399;SDS011;10359;53.596;22.520;2023-04-01T05:23:40;11.13;;;8.00;;
20399;SDS011;10359;53.596;22.520;2023-04-01T05:26:30;14.20;;;8.23;;
20399;SDS011;10359;53.596;22.520;2023-04-01T05:29:22;14.03;;;8.83;;
20399;SDS011;10359;53.596;22.520;2023-04-01T05:32:14;11.70;;;9.40;;
20399;SDS011;10359;53.596;22.520;2023-04-01T05:35:09;14.90;;;10.53;;
20399;SDS011;10359;53.596;22.520;2023-04-01T05:38:00;26.27;;;13.73;;
20399;SDS011;10359;53.596;22.520;2023-04-01T05:40:58;15.07;;;11.23;;
20399;SDS011;10359;53.596;22.520;2023-04-01T05:43:52;15.50;;;10.60;;
20399;SDS011;10359;53.596;22.520;2023-04-01T05:46:44;13.13;;;10.63;;
20399;SDS011;10359;53.596;22.520;2023-04-01T05:49:35;27.13;;;15.93;;
20399;SDS011;10359;53.596;22.520;2023-04-01T05:52:27;16.50;;;11.70;;
20399;SDS011;10359;53.596;22.520;2023-04-01T05:55:22;19.50;;;12.60;;
20399;SDS011;10359;53.596;22.520;2023-04-01T05:58:11;20.10;;;13.70;;
20399;SDS011;10359;53.596;22.520;2023-04-01T06:01:03;18.83;;;12.13;;
20399;SDS011;10359;53.596;22.520;2023-04-01T06:04:02;21.10;;;13.80;;
20399;SDS011;10359;53.596;22.520;2023-04-01T06:06:54;22.50;;;14.80;;
20399;SDS011;10359;53.596;22.520;2023-04-01T06:09:44;19.93;;;13.53;;
20399;SDS011;10359;53.596;22.520;2023-04-01T06:12:42;20.70;;;13.60;;
20399;SDS011;10359;53.596;22.520;2023-04-01T06:15:48;15.93;;;11.03;;
20399;SDS011;10359;53.596;22.520;2023-04-01T06:18:51;20.83;;;13.20;;
20399;SDS011;10359;53.596;22.520;2023-04-01T06:22:04;22.00;;;14.30;;
20399;SDS011;10359;53.596;22.520;2023-04-01T06:25:25;14.13;;;10.67;;
20399;SDS011;10359;53.596;22.520;2023-04-01T06:28:41;14.27;;;11.30;;
20399;SDS011;10359;53.596;22.520;2023-04-01T06:31:50;18.50;;;11.60;;
20399;SDS011;10359;53.596;22.520;2023-04-01T06:44:59;17.50;;;11.97;;
20399;SDS011;10359;53.596;22.520;2023-04-01T06:48:03;12.10;;;9.30;;
20399;SDS011;10359;53.596;22.520;2023-04-01T06:51:07;11.73;;;9.30;;
20399;SDS011;10359;53.596;22.520;2023-04-01T06:54:10;17.10;;;11.20;;
20399;SDS011;10359;53.596;22.520;2023-04-01T06:57:05;14.67;;;10.63;;
20399;SDS011;10359;53.596;22.520;2023-04-01T07:00:14;12.87;;;9.97;;
20399;SDS011;10359;53.596;22.520;2023-04-01T07:03:13;11.80;;;9.57;;
20399;SDS011;10359;53.596;22.520;2023-04-01T07:06:10;12.93;;;9.77;;
20399;SDS011;10359;53.596;22.520;2023-04-01T07:09:06;12.60;;;9.87;;
20399;SDS011;10359;53.596;22.520;2023-04-01T07:12:01;15.73;;;11.53;;
20399;SDS011;10359;53.596;22.520;2023-04-01T07:15:01;15.63;;;11.00;;
20399;SDS011;10359;53.596;22.520;2023-04-01T07:18:08;15.97;;;11.53;;
20399;SDS011;10359;53.596;22.520;2023-04-01T07:21:08;13.27;;;10.87;;
20399;SDS011;10359;53.596;22.520;2023-04-01T07:24:09;18.20;;;11.53;;
20399;SDS011;10359;53.596;22.520;2023-04-01T07:27:08;13.97;;;10.63;;
20399;SDS011;10359;53.596;22.520;2023-04-01T07:30:00;13.47;;;9.97;;
20399;SDS011;10359;53.596;22.520;2023-04-01T07:32:52;10.17;;;8.30;;
20399;SDS011;10359;53.596;22.520;2023-04-01T07:36:10;11.23;;;8.77;;
20399;SDS011;10359;53.596;22.520;2023-04-01T07:39:15;10.23;;;8.23;;
20399;SDS011;10359;53.596;22.520;2023-04-01T07:42:16;9.53;;;7.40;;
20399;SDS011;10359;53.596;22.520;2023-04-01T07:45:19;8.77;;;7.87;;
20399;SDS011;10359;53.596;22.520;2023-04-01T07:48:19;10.47;;;7.90;;
20399;SDS011;10359;53.596;22.520;2023-04-01T07:51:20;11.47;;;8.50;;
20399;SDS011;10359;53.596;22.520;2023-04-01T07:54:16;10.30;;;8.37;;
20399;SDS011;10359;53.596;22.520;2023-04-01T07:57:12;11.83;;;8.50;;
20399;SDS011;10359;53.596;22.520;2023-04-01T08:00:10;10.53;;;8.43;;
20399;SDS011;10359;53.596;22.520;2023-04-01T08:03:13;10.83;;;9.13;;
20399;SDS011;10359;53.596;22.520;2023-04-01T08:06:24;12.23;;;9.30;;
20399;SDS011;10359;53.596;22.520;2023-04-01T08:09:19;14.43;;;10.20;;
20399;SDS011;10359;53.596;22.520;2023-04-01T08:12:20;11.20;;;8.77;;
20399;SDS011;10359;53.596;22.520;2023-04-01T08:15:18;10.30;;;8.50;;
20399;SDS011;10359;53.596;22.520;2023-04-01T08:18:13;10.73;;;8.00;;
20399;SDS011;10359;53.596;22.520;2023-04-01T08:21:22;8.57;;;7.70;;
20399;SDS011;10359;53.596;22.520;2023-04-01T08:24:18;8.50;;;7.60;;
20399;SDS011;10359;53.596;22.520;2023-04-01T08:27:34;9.03;;;7.07;;
20399;SDS011;10359;53.596;22.520;2023-04-01T08:30:28;8.93;;;7.10;;
20399;SDS011;10359;53.596;22.520;2023-04-01T08:33:26;8.37;;;6.40;;
20399;SDS011;10359;53.596;22.520;2023-04-01T08:36:20;7.73;;;6.80;;
20399;SDS011;10359;53.596;22.520;2023-04-01T08:39:16;7.50;;;6.80;;
20399;SDS011;10359;53.596;22.520;2023-04-01T08:42:16;7.10;;;6.00;;
20399;SDS011;10359;53.596;22.520;2023-04-01T08:45:24;6.50;;;5.90;;
20399;SDS011;10359;53.596;22.520;2023-04-01T08:48:34;7.23;;;6.03;;
20399;SDS011;10359;53.596;22.520;2023-04-01T08:51:49;6.10;;;5.50;;
20399;SDS011;10359;53.596;22.520;2023-04-01T08:55:02;6.30;;;5.63;;
20399;SDS011;10359;53.596;22.520;2023-04-01T09:08:28;6.50;;;5.83;;
20399;SDS011;10359;53.596;22.520;2023-04-01T09:11:29;6.60;;;5.93;;
20399;SDS011;10359;53.596;22.520;2023-04-01T09:14:34;5.80;;;5.20;;
20399;SDS011;10359;53.596;22.520;2023-04-01T09:24:41;6.17;;;5.57;;
20399;SDS011;10359;53.596;22.520;2023-04-01T09:27:56;6.87;;;6.03;;
20399;SDS011;10359;53.596;22.520;2023-04-01T09:34:13;9.27;;;6.83;;
20399;SDS011;10359;53.596;22.520;2023-04-01T09:37:26;10.60;;;6.90;;
20399;SDS011;10359;53.596;22.520;2023-04-01T09:40:33;8.07;;;6.57;;
20399;SDS011;10359;53.596;22.520;2023-04-01T09:43:33;9.67;;;6.77;;
20399;SDS011;10359;53.596;22.520;2023-04-01T09:46:37;9.73;;;6.90;;
20399;SDS011;10359;53.596;22.520;2023-04-01T09:49:49;7.80;;;6.57;;
20399;SDS011;10359;53.596;22.520;2023-04-01T09:53:06;8.53;;;6.90;;
20399;SDS011;10359;53.596;22.520;2023-04-01T09:56:26;8.13;;;6.80;;
20399;SDS011;10359;53.596;22.520;2023-04-01T10:06:45;7.87;;;5.60;;
20399;SDS011;10359;53.596;22.520;2023-04-01T10:10:24;7.63;;;6.10;;
20399;SDS011;10359;53.596;22.520;2023-04-01T10:17:27;7.97;;;6.43;;
20399;SDS011;10359;53.596;22.520;2023-04-01T10:21:02;9.27;;;6.17;;
20399;SDS011;10359;53.596;22.520;2023-04-01T10:27:26;8.20;;;6.33;;
20399;SDS011;10359;53.596;22.520;2023-04-01T10:34:23;8.47;;;6.80;;
20399;SDS011;10359;53.596;22.520;2023-04-01T10:37:43;9.80;;;6.87;;
20399;SDS011;10359;53.596;22.520;2023-04-01T10:44:30;8.60;;;6.57;;
20399;SDS011;10359;53.596;22.520;2023-04-01T10:47:53;6.97;;;5.83;;
20399;SDS011;10359;53.596;22.520;2023-04-01T10:51:05;8.37;;;6.50;;
20399;SDS011;10359;53.596;22.520;2023-04-01T10:54:16;9.77;;;6.90;;
20399;SDS011;10359;53.596;22.520;2023-04-01T10:57:27;7.17;;;6.30;;
20399;SDS011;10359;53.596;22.520;2023-04-01T11:11:05;9.07;;;7.47;;
20399;SDS011;10359;53.596;22.520;2023-04-01T11:14:30;11.80;;;8.83;;
20399;SDS011;10359;53.596;22.520;2023-04-01T11:17:43;11.70;;;8.87;;
20399;SDS011;10359;53.596;22.520;2023-04-01T11:21:15;12.37;;;9.40;;
20399;SDS011;10359;53.596;22.520;2023-04-01T11:24:32;13.53;;;11.33;;
20399;SDS011;10359;53.596;22.520;2023-04-01T11:27:41;16.67;;;12.40;;
20399;SDS011;10359;53.596;22.520;2023-04-01T11:30:56;14.40;;;12.10;;
20399;SDS011;10359;53.596;22.520;2023-04-01T11:34:02;16.50;;;13.17;;
20399;SDS011;10359;53.596;22.520;2023-04-01T11:37:06;15.93;;;12.30;;
20399;SDS011;10359;53.596;22.520;2023-04-01T11:40:06;17.10;;;12.03;;
20399;SDS011;10359;53.596;22.520;2023-04-01T11:43:08;15.30;;;12.00;;
20399;SDS011;10359;53.596;22.520;2023-04-01T11:46:21;13.50;;;10.57;;
20399;SDS011;10359;53.596;22.520;2023-04-01T11:49:25;16.40;;;11.57;;
20399;SDS011;10359;53.596;22.520;2023-04-01T11:52:32;15.87;;;12.17;;
20399;SDS011;10359;53.596;22.520;2023-04-01T11:55:46;15.23;;;12.03;;
20399;SDS011;10359;53.596;22.520;2023-04-01T11:58:50;12.90;;;9.90;;
20399;SDS011;10359;53.596;22.520;2023-04-01T12:01:53;13.67;;;10.80;;
20399;SDS011;10359;53.596;22.520;2023-04-01T12:04:53;15.20;;;10.80;;
20399;SDS011;10359;53.596;22.520;2023-04-01T12:07:53;13.27;;;10.33;;
20399;SDS011;10359;53.596;22.520;2023-04-01T12:10:55;18.70;;;11.53;;
20399;SDS011;10359;53.596;22.520;2023-04-01T12:13:53;13.73;;;10.37;;
20399;SDS011;10359;53.596;22.520;2023-04-01T12:16:57;14.40;;;11.50;;
20399;SDS011;10359;53.596;22.520;2023-04-01T12:19:51;12.60;;;10.77;;
20399;SDS011;10359;53.596;22.520;2023-04-01T12:23:03;15.00;;;11.10;;
20399;SDS011;10359;53.596;22.520;2023-04-01T12:26:13;14.17;;;11.43;;
20399;SDS011;10359;53.596;22.520;2023-04-01T12:29:52;15.17;;;11.27;;
20399;SDS011;10359;53.596;22.520;2023-04-01T12:32:56;14.53;;;11.33;;
20399;SDS011;10359;53.596;22.520;2023-04-01T12:36:14;15.47;;;11.17;;
20399;SDS011;10359;53.596;22.520;2023-04-01T12:39:20;13.97;;;10.97;;
20399;SDS011;10359;53.596;22.520;2023-04-01T12:42:27;16.37;;;11.37;;
20399;SDS011;10359;53.596;22.520;2023-04-01T12:45:31;9.23;;;7.50;;
20399;SDS011;10359;53.596;22.520;2023-04-01T12:48:33;5.87;;;4.77;;
20399;SDS011;10359;53.596;22.520;2023-04-01T12:51:46;5.17;;;3.80;;
20399;SDS011;10359;53.596;22.520;2023-04-01T12:54:49;4.03;;;3.57;;
20399;SDS011;10359;53.596;22.520;2023-04-01T13:01:54;4.47;;;3.73;;
20399;SDS011;10359;53.596;22.520;2023-04-01T13:08:26;3.70;;;3.30;;
20399;SDS011;10359;53.596;22.520;2023-04-01T13:11:33;5.10;;;3.50;;
20399;SDS011;10359;53.596;22.520;2023-04-01T13:14:56;6.13;;;4.40;;
20399;SDS011;10359;53.596;22.520;2023-04-01T13:18:13;6.97;;;4.23;;
20399;SDS011;10359;53.596;22.520;2023-04-01T13:21:13;6.83;;;4.20;;
20399;SDS011;10359;53.596;22.520;2023-04-01T13:24:09;6.77;;;4.20;;
20399;SDS011;10359;53.596;22.520;2023-04-01T13:27:20;6.50;;;4.73;;
20399;SDS011;10359;53.596;22.520;2023-04-01T13:30:22;7.40;;;5.10;;
20399;SDS011;10359;53.596;22.520;2023-04-01T13:33:20;7.03;;;5.10;;
20399;SDS011;10359;53.596;22.520;2023-04-01T13:36:19;7.60;;;4.73;;
20399;SDS011;10359;53.596;22.520;2023-04-01T13:39:20;8.97;;;5.17;;
20399;SDS011;10359;53.596;22.520;2023-04-01T13:42:23;9.23;;;4.93;;
20399;SDS011;10359;53.596;22.520;2023-04-01T13:45:18;5.40;;;4.30;;
20399;SDS011;10359;53.596;22.520;2023-04-01T13:48:28;5.20;;;4.10;;
20399;SDS011;10359;53.596;22.520;2023-04-01T13:51:36;7.30;;;4.10;;
20399;SDS011;10359;53.596;22.520;2023-04-01T13:54:51;5.70;;;3.80;;
20399;SDS011;10359;53.596;22.520;2023-04-01T13:57:56;5.67;;;3.70;;
20399;SDS011;10359;53.596;22.520;2023-04-01T14:01:08;6.37;;;3.70;;
20399;SDS011;10359;53.596;22.520;2023-04-01T14:04:07;6.37;;;3.83;;
20399;SDS011;10359;53.596;22.520;2023-04-01T14:07:18;6.27;;;3.80;;
20399;SDS011;10359;53.596;22.520;2023-04-01T14:10:23;6.33;;;3.63;;
20399;SDS011;10359;53.596;22.520;2023-04-01T14:13:23;3.83;;;2.87;;
20399;SDS011;10359;53.596;22.520;2023-04-01T14:16:26;5.67;;;3.50;;
20399;SDS011;10359;53.596;22.520;2023-04-01T14:19:35;3.97;;;3.23;;
20399;SDS011;10359;53.596;22.520;2023-04-01T14:22:42;4.70;;;3.50;;
20399;SDS011;10359;53.596;22.520;2023-04-01T14:29:16;4.37;;;2.90;;
20399;SDS011;10359;53.596;22.520;2023-04-01T14:32:15;4.50;;;3.03;;
20399;SDS011;10359;53.596;22.520;2023-04-01T14:35:25;3.83;;;3.10;;
20399;SDS011;10359;53.596;22.520;2023-04-01T14:38:27;4.10;;;2.70;;
20399;SDS011;10359;53.596;22.520;2023-04-01T14:41:26;4.07;;;2.93;;
20399;SDS011;10359;53.596;22.520;2023-04-01T14:44:30;3.90;;;3.33;;
20399;SDS011;10359;53.596;22.520;2023-04-01T14:47:46;3.20;;;2.83;;
20399;SDS011;10359;53.596;22.520;2023-04-01T14:50:42;4.17;;;2.70;;
20399;SDS011;10359;53.596;22.520;2023-04-01T14:53:36;3.23;;;2.77;;
20399;SDS011;10359;53.596;22.520;2023-04-01T14:56:37;3.73;;;2.77;;
20399;SDS011;10359;53.596;22.520;2023-04-01T14:59:28;5.00;;;3.03;;
20399;SDS011;10359;53.596;22.520;2023-04-01T15:02:28;3.57;;;3.07;;
20399;SDS011;10359;53.596;22.520;2023-04-01T15:05:32;6.13;;;3.30;;
20399;SDS011;10359;53.596;22.520;2023-04-01T15:08:30;4.93;;;3.30;;
20399;SDS011;10359;53.596;22.520;2023-04-01T15:11:28;4.00;;;3.40;;
20399;SDS011;10359;53.596;22.520;2023-04-01T15:14:39;4.17;;;3.27;;
20399;SDS011;10359;53.596;22.520;2023-04-01T15:18:08;3.80;;;3.00;;
20399;SDS011;10359;53.596;22.520;2023-04-01T15:21:19;4.33;;;3.00;;
20399;SDS011;10359;53.596;22.520;2023-04-01T15:24:23;4.03;;;3.27;;
20399;SDS011;10359;53.596;22.520;2023-04-01T15:27:18;3.77;;;2.90;;
20399;SDS011;10359;53.596;22.520;2023-04-01T15:30:18;4.10;;;3.37;;
20399;SDS011;10359;53.596;22.520;2023-04-01T15:33:18;3.23;;;2.80;;
20399;SDS011;10359;53.596;22.520;2023-04-01T15:36:28;2.90;;;2.50;;
20399;SDS011;10359;53.596;22.520;2023-04-01T15:39:31;4.40;;;3.00;;
20399;SDS011;10359;53.596;22.520;2023-04-01T15:42:38;3.93;;;2.93;;
20399;SDS011;10359;53.596;22.520;2023-04-01T15:45:40;3.93;;;3.23;;
20399;SDS011;10359;53.596;22.520;2023-04-01T15:48:45;3.30;;;3.00;;
20399;SDS011;10359;53.596;22.520;2023-04-01T15:51:54;2.90;;;2.60;;
20399;SDS011;10359;53.596;22.520;2023-04-01T15:58:21;3.93;;;2.70;;
20399;SDS011;10359;53.596;22.520;2023-04-01T16:01:26;3.27;;;2.37;;
20399;SDS011;10359;53.596;22.520;2023-04-01T16:04:28;3.60;;;2.43;;
20399;SDS011;10359;53.596;22.520;2023-04-01T16:07:43;2.97;;;2.70;;
20399;SDS011;10359;53.596;22.520;2023-04-01T16:10:49;3.73;;;2.60;;
20399;SDS011;10359;53.596;22.520;2023-04-01T16:13:50;3.37;;;2.83;;
20399;SDS011;10359;53.596;22.520;2023-04-01T16:16:56;6.77;;;2.93;;
20399;SDS011;10359;53.596;22.520;2023-04-01T16:19:59;3.70;;;2.83;;
20399;SDS011;10359;53.596;22.520;2023-04-01T16:22:53;4.30;;;3.00;;
20399;SDS011;10359;53.596;22.520;2023-04-01T16:25:51;4.50;;;3.20;;
20399;SDS011;10359;53.596;22.520;2023-04-01T16:28:50;3.40;;;3.00;;
20399;SDS011;10359;53.596;22.520;2023-04-01T16:31:47;3.67;;;2.93;;
20399;SDS011;10359;53.596;22.520;2023-04-01T16:34:43;4.60;;;3.20;;
20399;SDS011;10359;53.596;22.520;2023-04-01T16:37:45;5.63;;;3.63;;
20399;SDS011;10359;53.596;22.520;2023-04-01T16:40:42;4.17;;;2.97;;
20399;SDS011;10359;53.596;22.520;2023-04-01T16:43:40;4.13;;;3.13;;
20399;SDS011;10359;53.596;22.520;2023-04-01T16:46:34;4.03;;;2.93;;
20399;SDS011;10359;53.596;22.520;2023-04-01T16:49:30;4.13;;;3.27;;
20399;SDS011;10359;53.596;22.520;2023-04-01T16:52:43;5.37;;;3.70;;
20399;SDS011;10359;53.596;22.520;2023-04-01T16:55:48;5.73;;;3.60;;
20399;SDS011;10359;53.596;22.520;2023-04-01T16:58:54;5.00;;;3.17;;
20399;SDS011;10359;53.596;22.520;2023-04-01T17:01:52;3.77;;;3.30;;
20399;SDS011;10359;53.596;22.520;2023-04-01T17:04:45;5.40;;;3.43;;
20399;SDS011;10359;53.596;22.520;2023-04-01T17:07:43;6.20;;;3.70;;
20399;SDS011;10359;53.596;22.520;2023-04-01T17:10:40;5.07;;;3.50;;
20399;SDS011;10359;53.596;22.520;2023-04-01T17:13:40;5.00;;;3.73;;
20399;SDS011;10359;53.596;22.520;2023-04-01T17:16:52;5.97;;;4.23;;
20399;SDS011;10359;53.596;22.520;2023-04-01T17:20:05;4.10;;;3.63;;
20399;SDS011;10359;53.596;22.520;2023-04-01T17:23:19;7.07;;;4.07;;
20399;SDS011;10359;53.596;22.520;2023-04-01T17:26:20;7.63;;;4.40;;
20399;SDS011;10359;53.596;22.520;2023-04-01T17:29:31;6.67;;;5.13;;
20399;SDS011;10359;53.596;22.520;2023-04-01T17:32:47;6.60;;;4.03;;
20399;SDS011;10359;53.596;22.520;2023-04-01T17:35:49;5.70;;;4.33;;
20399;SDS011;10359;53.596;22.520;2023-04-01T17:38:54;5.57;;;4.10;;
20399;SDS011;10359;53.596;22.520;2023-04-01T17:42:08;5.17;;;4.30;;
20399;SDS011;10359;53.596;22.520;2023-04-01T17:45:08;7.47;;;4.90;;
20399;SDS011;10359;53.596;22.520;2023-04-01T17:48:14;6.00;;;4.67;;
20399;SDS011;10359;53.596;22.520;2023-04-01T17:51:14;5.97;;;4.60;;
20399;SDS011;10359;53.596;22.520;2023-04-01T17:54:16;6.93;;;4.17;;
20399;SDS011;10359;53.596;22.520;2023-04-01T17:57:24;6.20;;;4.90;;
20399;SDS011;10359;53.596;22.520;2023-04-01T18:00:26;6.47;;;4.80;;
20399;SDS011;10359;53.596;22.520;2023-04-01T18:03:54;7.13;;;4.90;;
20399;SDS011;10359;53.596;22.520;2023-04-01T18:06:58;7.40;;;4.80;;
20399;SDS011;10359;53.596;22.520;2023-04-01T18:10:16;7.83;;;5.30;;
20399;SDS011;10359;53.596;22.520;2023-04-01T18:13:24;6.83;;;5.30;;
20399;SDS011;10359;53.596;22.520;2023-04-01T18:16:41;9.87;;;5.63;;
20399;SDS011;10359;53.596;22.520;2023-04-01T18:19:43;8.97;;;4.97;;
20399;SDS011;10359;53.596;22.520;2023-04-01T18:22:47;7.17;;;5.87;;
20399;SDS011;10359;53.596;22.520;2023-04-01T18:25:44;9.43;;;6.53;;
20399;SDS011;10359;53.596;22.520;2023-04-01T18:28:38;6.67;;;5.47;;
20399;SDS011;10359;53.596;22.520;2023-04-01T18:31:32;9.40;;;5.97;;
20399;SDS011;10359;53.596;22.520;2023-04-01T18:34:36;6.47;;;5.20;;
20399;SDS011;10359;53.596;22.520;2023-04-01T18:37:34;8.17;;;5.90;;
20399;SDS011;10359;53.596;22.520;2023-04-01T18:40:34;8.80;;;6.33;;
20399;SDS011;10359;53.596;22.520;2023-04-01T18:43:30;7.80;;;5.60;;
20399;SDS011;10359;53.596;22.520;2023-04-01T18:46:29;9.27;;;6.03;;
20399;SDS011;10359;53.596;22.520;2023-04-01T18:49:29;8.60;;;6.03;;
20399;SDS011;10359;53.596;22.520;2023-04-01T18:52:32;7.97;;;5.43;;
20399;SDS011;10359;53.596;22.520;2023-04-01T18:55:37;6.70;;;5.23;;
20399;SDS011;10359;53.596;22.520;2023-04-01T18:58:34;9.37;;;5.67;;